Time;durP1;ratioP1;P1;durP2;ratioP2;P2;SDS_P1;SDS_P2;PMS_P1;PMS_P2;Temp;Humidity;BMP_temperature;BMP_pressure;BME280_temperature;BME280_humidity;BME280_pressure;Samples;Min_cycle;Max_cycle;Signal;HPM_P1;HPM_P2
2021/05/13 00:01:22;;;;;;;10.18;4.85;;;;;;;9.44;73.74;100295.06;5050323;28;20503;-45
2021/05/13 00:03:51;;;;;;;7.70;4.28;;;;;;;9.39;74.01;100295.31;5059310;28;20056;-47
2021/05/13 00:06:18;;;;;;;11.27;6.25;;;;;;;9.38;74.11;100290.94;5033326;28;20091;-44
2021/05/13 00:08:47;;;;;;;12.02;8.30;;;;;;;9.40;74.08;100283.91;5050366;28;20049;-46
2021/05/13 00:11:14;;;;;;;12.30;6.97;;;;;;;9.45;73.53;100289.19;5032815;28;20091;-47
2021/05/13 00:13:41;;;;;;;14.77;7.63;;;;;;;9.45;73.51;100296.69;5050359;28;20055;-45
2021/05/13 00:16:08;;;;;;;13.75;8.15;;;;;;;9.41;73.76;100299.34;5050314;28;20382;-46
2021/05/13 00:18:37;;;;;;;9.45;6.63;;;;;;;9.40;73.65;100297.72;5051387;28;20059;-45
2021/05/13 00:21:03;;;;;;;13.20;8.68;;;;;;;9.38;73.86;100301.97;5050596;28;20048;-47
2021/05/13 00:23:31;;;;;;;14.07;7.10;;;;;;;9.36;73.67;100305.09;5050597;28;20048;-47
2021/05/13 00:25:57;;;;;;;13.43;8.25;;;;;;;9.31;73.85;100297.06;5050344;28;20072;-45
2021/05/13 00:28:25;;;;;;;12.75;7.70;;;;;;;9.27;73.98;100292.56;5050056;28;20075;-46
2021/05/13 00:30:52;;;;;;;11.98;6.88;;;;;;;9.23;74.18;100300.75;5050629;28;20124;-49
2021/05/13 00:33:19;;;;;;;11.60;7.40;;;;;;;9.17;74.21;100307.66;5051005;28;20429;-50
2021/05/13 00:35:45;;;;;;;12.77;7.85;;;;;;;9.08;74.45;100293.97;5051098;28;20052;-46
2021/05/13 00:38:12;;;;;;;14.82;9.13;;;;;;;9.03;74.50;100305.25;5050748;28;20091;-48
2021/05/13 00:40:39;;;;;;;13.43;7.68;;;;;;;9.04;74.53;100304.09;5054543;28;20045;-49
2021/05/13 00:43:06;;;;;;;12.52;8.50;;;;;;;9.02;74.35;100303.66;5054939;28;20037;-47
2021/05/13 00:45:32;;;;;;;11.15;6.72;;;;;;;8.98;74.59;100294.44;5036698;28;20072;-46
2021/05/13 00:48:05;;;;;;;12.60;7.78;;;;;;;8.99;74.34;100290.53;5054376;28;20079;-48
2021/05/13 00:50:34;;;;;;;13.23;8.60;;;;;;;8.93;74.37;100297.41;5054193;28;20047;-52
2021/05/13 00:53:08;;;;;;;13.93;8.27;;;;;;;8.89;74.78;100301.22;5055732;28;20079;-46
2021/05/13 00:55:37;;;;;;;12.60;7.70;;;;;;;8.88;74.67;100307.88;5054723;28;20090;-45
2021/05/13 00:58:05;;;;;;;12.70;6.95;;;;;;;8.84;74.68;100307.75;5053480;28;20064;-45
2021/05/13 01:00:43;;;;;;;11.93;7.72;;;;;;;8.84;74.62;100305.00;5056746;28;20045;-45
2021/05/13 01:03:09;;;;;;;12.05;7.10;;;;;;;8.82;74.63;100301.78;5053514;28;20060;-45
2021/05/13 01:05:37;;;;;;;17.67;8.82;;;;;;;8.86;74.27;100310.19;5054637;28;20136;-46
2021/05/13 01:08:06;;;;;;;12.20;7.40;;;;;;;8.86;74.31;100307.44;5053812;28;20063;-46
2021/05/13 01:10:34;;;;;;;12.93;7.70;;;;;;;8.85;74.22;100312.13;5061357;28;20097;-47
2021/05/13 01:13:07;;;;;;;13.75;7.65;;;;;;;8.78;74.25;100303.63;5052978;28;20036;-46
2021/05/13 01:18:25;;;;;;;15.50;8.82;;;;;;;8.71;74.35;100305.34;5023136;28;20060;-45
2021/05/13 01:20:52;;;;;;;12.98;7.32;;;;;;;8.63;74.70;100301.53;5054021;28;20056;-45
2021/05/13 01:23:20;;;;;;;12.75;7.35;;;;;;;8.61;74.58;100309.34;5054275;28;20175;-45
2021/05/13 01:25:51;;;;;;;12.85;7.88;;;;;;;8.58;74.58;100310.03;5052414;28;20057;-45
2021/05/13 01:28:27;;;;;;;16.65;7.45;;;;;;;8.53;74.88;100307.50;5059037;28;20338;-46
2021/05/13 01:30:55;;;;;;;12.20;7.45;;;;;;;8.53;74.86;100307.50;5053593;28;20068;-46
2021/05/13 01:33:24;;;;;;;11.82;6.90;;;;;;;8.50;74.89;100300.72;5052336;28;20045;-46
2021/05/13 01:35:52;;;;;;;12.55;7.47;;;;;;;8.48;74.87;100299.44;5053588;28;20132;-45
2021/05/13 01:38:21;;;;;;;13.18;8.23;;;;;;;8.45;74.94;100308.41;5053911;28;20045;-46
2021/05/13 01:40:54;;;;;;;12.00;7.22;;;;;;;8.41;74.97;100307.47;5053105;28;20494;-45
2021/05/13 01:43:28;;;;;;;10.98;6.90;;;;;;;8.41;74.77;100296.44;5054314;28;20076;-45
2021/05/13 01:45:56;;;;;;;10.53;6.83;;;;;;;8.46;74.77;100304.50;5053453;28;20049;-47
2021/05/13 01:48:22;;;;;;;11.40;7.65;;;;;;;8.44;74.90;100306.81;5053994;28;20345;-47
2021/05/13 01:50:53;;;;;;;8.50;6.10;;;;;;;8.45;74.70;100311.16;5035562;28;20052;-45
2021/05/13 01:53:20;;;;;;;12.68;7.80;;;;;;;8.39;74.75;100305.03;5053108;28;20099;-48
2021/05/13 01:55:48;;;;;;;10.80;6.68;;;;;;;8.36;74.86;100300.25;5052927;28;20037;-47
2021/05/13 01:58:15;;;;;;;13.25;6.65;;;;;;;8.34;74.77;100307.25;5050984;28;20473;-45
2021/05/13 02:00:44;;;;;;;12.85;5.88;;;;;;;8.31;74.69;100300.44;5050560;28;20383;-46
2021/05/13 02:03:12;;;;;;;10.07;5.28;;;;;;;8.27;75.00;100302.28;5045988;28;20425;-45
2021/05/13 02:05:39;;;;;;;10.65;5.85;;;;;;;8.23;74.83;100301.31;5051366;28;20045;-45
2021/05/13 02:08:06;;;;;;;10.30;5.20;;;;;;;8.23;75.05;100295.00;5052902;28;20460;-50
2021/05/13 02:10:34;;;;;;;7.63;5.55;;;;;;;8.24;75.16;100299.34;5051740;28;20049;-47
2021/05/13 02:13:01;;;;;;;11.95;5.93;;;;;;;8.23;75.02;100297.75;5052750;28;20076;-48
2021/05/13 02:15:28;;;;;;;8.50;4.75;;;;;;;8.23;74.76;100306.84;5052299;28;20514;-48
2021/05/13 02:17:55;;;;;;;8.30;5.20;;;;;;;8.20;74.88;100295.66;5053402;28;20052;-45
2021/05/13 02:20:23;;;;;;;8.30;4.82;;;;;;;8.19;74.92;100296.81;5052072;28;20056;-46
2021/05/13 02:22:52;;;;;;;8.88;4.43;;;;;;;8.19;75.01;100307.84;5052002;28;20376;-46
2021/05/13 02:25:18;;;;;;;6.55;4.45;;;;;;;8.19;74.75;100302.31;5035121;28;20044;-46
2021/05/13 02:27:45;;;;;;;8.38;4.72;;;;;;;8.17;75.03;100304.63;5052696;28;20049;-46
2021/05/13 02:30:14;;;;;;;7.05;4.55;;;;;;;8.17;75.06;100297.16;5053110;28;20128;-47
2021/05/13 02:32:41;;;;;;;7.97;5.28;;;;;;;8.16;74.78;100292.78;5051935;28;20064;-45
2021/05/13 02:35:09;;;;;;;8.50;4.25;;;;;;;8.14;74.79;100297.03;5053509;28;20073;-45
2021/05/13 02:37:36;;;;;;;9.02;5.68;;;;;;;8.12;74.85;100299.31;5052382;28;20041;-45
2021/05/13 02:40:08;;;;;;;7.53;4.82;;;;;;;8.11;74.92;100289.44;5052834;28;20049;-46
2021/05/13 02:42:36;;;;;;;5.68;4.13;;;;;;;8.08;74.91;100292.84;5051004;28;20045;-45
2021/05/13 02:45:04;;;;;;;8.00;4.47;;;;;;;8.06;74.96;100290.44;5051325;28;20099;-46
2021/05/13 02:47:31;;;;;;;5.78;3.70;;;;;;;8.07;75.29;100288.50;5052104;28;20506;-45
2021/05/13 02:49:58;;;;;;;6.00;3.78;;;;;;;8.03;75.26;100284.81;5052578;28;20056;-45
2021/05/13 02:52:25;;;;;;;5.43;3.30;;;;;;;8.05;75.40;100288.06;5051739;28;20490;-47
2021/05/13 02:54:52;;;;;;;6.38;3.55;;;;;;;8.07;74.99;100285.75;5051994;28;20045;-45
2021/05/13 02:57:19;;;;;;;5.93;2.72;;;;;;;8.06;74.92;100279.44;5051900;28;20033;-45
2021/05/13 02:59:50;;;;;;;6.05;2.63;;;;;;;8.04;74.88;100286.44;5051559;28;20072;-45
2021/05/13 03:02:17;;;;;;;5.60;1.98;;;;;;;7.99;74.91;100288.22;5051230;28;20048;-47
2021/05/13 03:04:44;;;;;;;4.95;2.78;;;;;;;7.98;74.70;100292.16;5051621;28;20401;-46
2021/05/13 03:07:11;;;;;;;6.63;2.42;;;;;;;7.99;74.86;100292.97;5052104;28;20053;-45
2021/05/13 03:09:43;;;;;;;3.95;1.88;;;;;;;7.98;74.85;100299.63;5053001;28;20495;-45
2021/05/13 03:12:13;;;;;;;5.15;1.95;;;;;;;7.96;74.88;100291.69;5052340;28;20053;-45
2021/05/13 03:14:40;;;;;;;4.45;2.22;;;;;;;7.96;74.57;100302.72;5051278;28;20433;-45
2021/05/13 03:17:07;;;;;;;3.65;2.10;;;;;;;7.95;74.59;100295.59;5030945;28;20089;-45
2021/05/13 03:19:41;;;;;;;2.42;1.63;;;;;;;7.94;74.94;100290.41;5032379;28;20073;-45
2021/05/13 03:22:15;;;;;;;3.97;1.55;;;;;;;7.94;74.87;100293.19;5031802;28;20073;-45
2021/05/13 03:27:27;;;;;;;2.90;1.80;;;;;;;7.95;74.58;100292.81;5032395;28;20045;-45
2021/05/13 03:29:55;;;;;;;7.72;1.77;;;;;;;7.95;74.50;100295.59;5032020;28;20049;-45
2021/05/13 03:32:25;;;;;;;5.60;1.98;;;;;;;7.95;74.41;100297.53;5031401;28;20128;-46
2021/05/13 03:34:52;;;;;;;2.95;1.75;;;;;;;7.88;74.57;100292.56;5013427;28;20092;-45
2021/05/13 03:37:25;;;;;;;2.92;1.50;;;;;;;7.80;75.04;100295.41;5011967;28;20111;-48
2021/05/13 03:39:51;;;;;;;5.90;1.95;;;;;;;7.77;74.88;100294.13;5031858;28;20045;-47
2021/05/13 03:42:19;;;;;;;2.55;1.60;;;;;;;7.73;75.23;100293.16;5031534;28;20041;-45
2021/05/13 03:44:45;;;;;;;9.50;2.00;;;;;;;7.76;74.92;100291.69;5048768;28;20088;-46
2021/05/13 03:47:12;;;;;;;2.88;2.30;;;;;;;7.75;74.78;100287.34;5036906;28;20626;-47
2021/05/13 03:49:39;;;;;;;2.67;2.20;;;;;;;7.74;74.77;100289.28;5030866;28;20076;-50
2021/05/13 03:52:06;;;;;;;4.65;1.88;;;;;;;7.70;74.92;100287.56;5031450;28;20501;-45
2021/05/13 03:54:33;;;;;;;3.97;1.52;;;;;;;7.64;75.13;100289.69;5030895;28;20360;-46
2021/05/13 03:57:00;;;;;;;2.85;2.00;;;;;;;7.63;75.22;100296.34;5031415;28;20387;-45
2021/05/13 03:59:34;;;;;;;6.88;2.00;;;;;;;7.62;75.16;100297.50;5031625;28;20092;-45
2021/05/13 04:02:34;;;;;;;3.85;1.70;;;;;;;7.61;75.42;100300.56;5032044;28;20069;-45
2021/05/13 04:04:53;;;;;;;2.08;1.60;;;;;;;7.56;75.51;100287.81;5028214;28;20140;-45
2021/05/13 04:07:21;;;;;;;3.10;2.10;;;;;;;7.60;75.53;100286.00;5030579;28;20140;-45
2021/05/13 04:09:48;;;;;;;2.35;1.58;;;;;;;7.65;75.22;100290.50;5030530;28;20103;-48
2021/05/13 04:12:15;;;;;;;6.45;1.65;;;;;;;7.65;75.14;100296.03;5031556;28;20099;-45
2021/05/13 04:14:42;;;;;;;13.48;3.03;;;;;;;7.64;75.08;100292.47;5029824;28;20124;-45
2021/05/13 04:17:08;;;;;;;4.10;2.08;;;;;;;7.67;74.80;100304.75;5049520;28;20049;-48
2021/05/13 04:19:35;;;;;;;3.60;1.92;;;;;;;7.68;74.93;100298.91;5050414;28;20367;-45
2021/05/13 04:22:03;;;;;;;3.20;1.55;;;;;;;7.72;74.83;100285.25;5051244;28;20510;-45
2021/05/13 04:24:30;;;;;;;3.75;3.38;;;;;;;7.66;74.91;100305.88;5050711;28;20060;-45
2021/05/13 04:26:57;;;;;;;5.05;2.13;;;;;;;7.59;74.93;100297.38;5050822;28;20441;-49
2021/05/13 04:29:25;;;;;;;5.68;1.75;;;;;;;7.54;75.24;100301.13;5049919;28;20121;-45
2021/05/13 04:31:52;;;;;;;3.47;2.25;;;;;;;7.52;75.43;100299.84;5051355;28;20452;-46
2021/05/13 04:34:19;;;;;;;3.45;1.75;;;;;;;7.53;75.17;100312.47;5051754;28;20083;-45
2021/05/13 04:36:46;;;;;;;3.25;1.85;;;;;;;7.44;75.30;100301.50;5050908;28;20079;-45
2021/05/13 04:39:13;;;;;;;2.53;1.75;;;;;;;7.45;75.65;100303.13;5050132;28;20049;-45
2021/05/13 04:41:42;;;;;;;3.97;1.75;;;;;;;7.43;75.59;100302.66;5051140;28;20099;-45
2021/05/13 04:44:08;;;;;;;6.72;2.20;;;;;;;7.41;75.66;100306.91;5050238;28;20045;-46
2021/05/13 04:46:37;;;;;;;5.35;2.20;;;;;;;7.41;75.72;100307.72;5051125;28;20048;-45
2021/05/13 04:51:36;;;;;;;4.93;1.97;;;;;;;7.52;75.67;100308.13;5051460;28;20135;-49
2021/05/13 04:54:03;;;;;;;2.63;1.92;;;;;;;7.47;75.65;100311.03;5050507;28;20728;-49
2021/05/13 04:56:31;;;;;;;5.57;2.05;;;;;;;7.48;75.99;100307.97;5050304;28;20474;-48
2021/05/13 04:58:58;;;;;;;4.88;2.50;;;;;;;7.43;75.91;100313.69;5050965;28;20072;-46
2021/05/13 05:01:26;;;;;;;3.65;2.03;;;;;;;7.42;76.10;100314.81;5052332;28;20048;-46
2021/05/13 05:03:52;;;;;;;4.45;1.92;;;;;;;7.45;76.50;100321.59;5049053;28;20052;-44
2021/05/13 05:06:19;;;;;;;3.55;2.17;;;;;;;7.45;76.72;100330.66;5049776;28;20049;-45
2021/05/13 05:08:46;;;;;;;5.05;2.55;;;;;;;7.45;76.76;100319.66;5059947;28;20083;-48
2021/05/13 05:11:16;;;;;;;3.75;2.35;;;;;;;7.52;76.45;100319.91;5051287;28;20143;-45
2021/05/13 05:13:42;;;;;;;6.57;2.42;;;;;;;7.55;76.53;100321.19;5050162;28;20037;-46
2021/05/13 05:16:09;;;;;;;7.43;2.25;;;;;;;7.60;76.80;100324.56;5050708;28;20455;-48
2021/05/13 05:18:36;;;;;;;3.65;2.38;;;;;;;7.63;76.88;100321.13;5049660;28;20087;-46
2021/05/13 05:21:03;;;;;;;3.78;2.55;;;;;;;7.68;76.59;100329.19;5050877;28;20445;-47
2021/05/13 05:23:30;;;;;;;5.55;3.05;;;;;;;7.73;76.90;100330.97;5049089;28;20049;-47
2021/05/13 05:25:57;;;;;;;4.88;2.58;;;;;;;7.75;76.84;100329.50;5053354;28;20144;-47
2021/05/13 05:28:25;;;;;;;4.82;2.58;;;;;;;7.83;76.84;100333.31;5053909;28;20053;-44
2021/05/13 05:30:52;;;;;;;5.10;2.63;;;;;;;7.86;77.33;100335.41;5036170;28;20079;-45
2021/05/13 05:33:19;;;;;;;5.38;2.47;;;;;;;7.83;77.55;100336.88;5053361;28;20445;-45
2021/05/13 05:35:47;;;;;;;3.20;2.50;;;;;;;7.88;77.31;100333.91;5054146;28;20574;-47
2021/05/13 05:38:14;;;;;;;4.55;2.92;;;;;;;7.94;77.37;100338.06;5062369;28;20045;-45
2021/05/13 05:40:42;;;;;;;8.93;2.72;;;;;;;7.97;77.01;100328.31;5054305;28;20079;-45
2021/05/13 05:43:09;;;;;;;4.70;2.55;;;;;;;7.99;77.30;100335.09;5053170;28;20068;-46
2021/05/13 05:45:35;;;;;;;3.75;2.67;;;;;;;8.05;77.18;100332.16;5053624;28;20073;-48
2021/05/13 05:48:03;;;;;;;4.28;2.97;;;;;;;8.03;77.32;100328.91;5053518;28;20136;-45
2021/05/13 05:50:34;;;;;;;5.68;3.10;;;;;;;8.05;77.61;100341.22;5054435;28;20457;-45
2021/05/13 05:53:03;;;;;;;7.90;3.28;;;;;;;8.05;77.78;100338.44;5052802;28;20056;-45
2021/05/13 05:55:31;;;;;;;3.58;2.78;;;;;;;8.03;78.26;100335.22;5053434;28;20043;-46
2021/05/13 05:57:59;;;;;;;4.40;2.58;;;;;;;8.06;78.03;100333.75;5053085;28;20103;-46
2021/05/13 06:00:26;;;;;;;4.72;2.78;;;;;;;8.12;77.95;100326.91;5054191;28;20131;-48
2021/05/13 06:02:53;;;;;;;7.82;3.38;;;;;;;8.13;78.13;100339.53;5051243;28;20132;-46
2021/05/13 06:05:20;;;;;;;4.75;3.42;;;;;;;8.14;78.43;100336.44;5052507;28;20059;-45
2021/05/13 06:07:46;;;;;;;8.32;2.95;;;;;;;8.15;78.64;100331.72;5052947;28;20504;-46
2021/05/13 06:10:14;;;;;;;4.45;3.58;;;;;;;8.19;78.54;100341.75;5053667;28;20076;-45
2021/05/13 06:12:43;;;;;;;5.80;3.30;;;;;;;8.20;79.32;100346.13;5053249;28;20049;-48
2021/05/13 06:15:12;;;;;;;10.60;4.47;;;;;;;8.22;79.18;100343.00;5052523;28;20429;-45
2021/05/13 06:17:39;;;;;;;6.78;3.60;;;;;;;8.27;79.08;100348.34;5066106;28;20067;-48
2021/05/13 06:20:15;;;;;;;6.05;3.65;;;;;;;8.33;79.17;100355.25;5053585;28;20053;-44
2021/05/13 06:22:42;;;;;;;5.80;4.35;;;;;;;8.36;79.32;100346.31;5053022;28;20087;-46
2021/05/13 06:25:10;;;;;;;11.50;4.55;;;;;;;8.38;79.35;100350.34;5053282;28;20120;-45
2021/05/13 06:27:37;;;;;;;5.85;4.50;;;;;;;8.41;79.54;100355.19;5052449;28;20049;-46
2021/05/13 06:30:05;;;;;;;9.93;5.22;;;;;;;8.49;79.16;100342.44;5052784;28;20074;-49
2021/05/13 06:32:32;;;;;;;8.45;5.10;;;;;;;8.56;79.47;100342.69;5060205;28;20080;-45
2021/05/13 06:34:59;;;;;;;9.00;5.05;;;;;;;8.58;79.28;100343.94;5053809;28;20425;-44
2021/05/13 06:37:26;;;;;;;9.73;5.45;;;;;;;8.62;79.34;100346.84;5050852;28;20722;-45
2021/05/13 06:39:52;;;;;;;8.98;5.45;;;;;;;8.62;79.57;100352.38;5053143;28;20057;-45
2021/05/13 06:42:19;;;;;;;9.60;6.55;;;;;;;8.63;79.73;100353.19;5052457;28;20124;-46
2021/05/13 06:44:46;;;;;;;15.98;6.22;;;;;;;8.65;79.77;100351.69;5053097;28;20072;-45
2021/05/13 06:47:13;;;;;;;13.85;7.35;;;;;;;8.71;79.88;100352.28;5050477;28;20486;-48
2021/05/13 06:49:40;;;;;;;13.07;5.97;;;;;;;8.74;79.64;100366.16;5051653;28;20090;-44
2021/05/13 06:52:08;;;;;;;11.52;7.30;;;;;;;8.76;79.91;100363.91;5053128;28;20047;-44
2021/05/13 06:54:35;;;;;;;13.75;8.25;;;;;;;8.78;79.86;100367.13;5052060;28;20045;-45
2021/05/13 06:57:02;;;;;;;11.05;6.70;;;;;;;8.82;80.00;100370.78;5052130;28;20057;-44
2021/05/13 06:59:29;;;;;;;10.05;6.65;;;;;;;8.88;79.89;100372.19;5052262;28;20132;-45
2021/05/13 07:01:56;;;;;;;12.65;7.55;;;;;;;8.93;80.02;100374.72;5041465;28;20072;-44
2021/05/13 07:04:24;;;;;;;10.25;7.00;;;;;;;9.01;79.97;100365.53;5037258;28;20075;-46
2021/05/13 07:06:51;;;;;;;12.57;9.35;;;;;;;9.08;79.87;100376.81;5051815;28;20049;-44
2021/05/13 07:09:18;;;;;;;9.38;7.05;;;;;;;9.17;80.08;100374.75;5051562;28;20049;-45
2021/05/13 07:11:45;;;;;;;17.77;8.13;;;;;;;9.26;80.34;100368.31;5052296;28;20087;-48
2021/05/13 07:14:15;;;;;;;11.70;6.97;;;;;;;9.34;79.96;100368.19;5052109;28;20042;-46
2021/05/13 07:16:43;;;;;;;11.52;7.72;;;;;;;9.35;80.35;100378.06;5039504;28;20092;-49
2021/05/13 07:19:09;;;;;;;17.60;8.23;;;;;;;9.42;80.09;100383.03;5031101;28;20103;-45
2021/05/13 07:21:37;;;;;;;12.02;8.13;;;;;;;9.55;80.11;100385.44;5026192;28;20044;-47
2021/05/13 07:24:08;;;;;;;11.27;7.63;;;;;;;9.75;80.08;100390.03;5030655;28;20490;-50
2021/05/13 07:26:36;;;;;;;18.30;8.98;;;;;;;10.02;80.21;100395.94;5050396;28;20061;-49
2021/05/13 07:29:03;;;;;;;47.22;10.43;;;;;;;10.21;80.25;100390.63;5049880;28;20044;-46
2021/05/13 07:31:30;;;;;;;12.88;8.75;;;;;;;10.33;79.89;100383.06;5048148;28;20551;-46
2021/05/13 07:33:58;;;;;;;16.10;9.52;;;;;;;10.36;79.63;100390.69;5050144;28;20144;-46
2021/05/13 07:36:25;;;;;;;16.85;9.32;;;;;;;10.39;79.16;100392.75;5047390;28;20083;-50
2021/05/13 07:38:51;;;;;;;13.35;9.52;;;;;;;10.44;79.01;100393.63;5049815;28;20040;-45
2021/05/13 07:41:18;;;;;;;17.38;11.18;;;;;;;10.53;79.10;100397.06;5049200;28;20041;-47
2021/05/13 07:43:45;;;;;;;17.00;9.85;;;;;;;10.63;79.00;100400.13;5050716;28;20095;-47
2021/05/13 07:46:12;;;;;;;20.23;12.63;;;;;;;10.70;79.29;100393.97;5048632;28;20452;-50
2021/05/13 07:48:39;;;;;;;22.05;14.63;;;;;;;10.73;80.46;100396.03;5031204;28;20040;-50
2021/05/13 07:51:06;;;;;;;19.13;12.13;;;;;;;10.79;81.97;100400.16;5049512;28;20049;-49
2021/05/13 07:53:35;;;;;;;17.73;12.07;;;;;;;10.95;83.44;100409.28;5048817;28;20045;-47
2021/05/13 07:56:02;;;;;;;17.90;12.55;;;;;;;11.19;84.86;100408.31;5038933;28;20562;-48
2021/05/13 07:58:29;;;;;;;23.42;13.38;;;;;;;11.46;85.63;100413.75;5039182;28;20045;-57
2021/05/13 08:00:57;;;;;;;19.05;12.57;;;;;;;11.76;85.70;100413.28;5022174;28;20544;-51
2021/05/13 08:03:24;;;;;;;17.92;11.27;;;;;;;12.26;85.30;100423.56;5030423;28;20338;-48
2021/05/13 08:05:52;;;;;;;15.15;11.13;;;;;;;12.76;82.81;100415.84;5047647;28;20437;-49
2021/05/13 08:08:18;;;;;;;22.40;12.90;;;;;;;13.28;80.74;100423.59;5046433;28;20081;-48
2021/05/13 08:10:45;;;;;;;14.40;10.52;;;;;;;13.87;78.77;100419.38;5030755;28;20049;-48
2021/05/13 08:13:18;;;;;;;14.50;9.48;;;;;;;14.53;76.32;100425.03;5049039;28;20175;-47
2021/05/13 08:15:44;;;;;;;13.02;9.55;;;;;;;15.16;72.98;100424.97;5047517;28;20106;-48
2021/05/13 08:18:11;;;;;;;10.25;8.40;;;;;;;15.80;71.16;100415.16;5049037;28;20059;-49
2021/05/13 08:20:38;;;;;;;12.75;8.57;;;;;;;16.37;69.07;100421.88;5047791;28;20103;-46
2021/05/13 08:23:07;;;;;;;12.80;8.82;;;;;;;16.78;67.18;100424.47;5048119;28;20139;-48
2021/05/13 08:25:34;;;;;;;14.57;9.10;;;;;;;17.27;65.75;100424.56;5041035;28;20075;-49
2021/05/13 08:28:01;;;;;;;9.45;7.18;;;;;;;17.72;64.19;100422.19;5046499;28;20056;-48
2021/05/13 08:30:27;;;;;;;9.35;7.78;;;;;;;18.10;62.86;100432.53;5050633;28;20099;-49
2021/05/13 08:32:57;;;;;;;10.43;7.85;;;;;;;18.39;61.55;100427.66;5057417;28;20174;-54
2021/05/13 08:35:24;;;;;;;13.35;7.78;;;;;;;18.65;60.43;100436.41;5045463;28;20123;-49
2021/05/13 08:37:51;;;;;;;11.50;7.80;;;;;;;18.83;59.05;100425.88;5046135;28;20690;-48
2021/05/13 08:40:18;;;;;;;12.70;7.95;;;;;;;19.05;58.25;100420.16;5029005;28;20145;-49
2021/05/13 08:42:47;;;;;;;12.80;7.22;;;;;;;19.18;57.52;100430.50;5047332;28;20463;-49
2021/05/13 08:45:14;;;;;;;15.40;9.05;;;;;;;19.24;56.79;100428.06;5046867;28;20080;-49
2021/05/13 08:47:45;;;;;;;10.75;8.48;;;;;;;19.17;56.21;100428.06;5049834;28;20048;-55
2021/05/13 08:50:15;;;;;;;10.50;7.85;;;;;;;19.24;55.86;100426.06;5054350;28;20079;-50
2021/05/13 08:52:42;;;;;;;13.93;8.27;;;;;;;19.31;55.54;100426.00;5047834;28;20107;-49
2021/05/13 08:55:15;;;;;;;9.38;7.00;;;;;;;19.47;54.65;100425.50;5046669;28;20453;-48
2021/05/13 08:57:43;;;;;;;8.90;6.70;;;;;;;19.76;53.99;100424.03;5037879;28;20049;-48
2021/05/13 09:00:10;;;;;;;8.98;6.78;;;;;;;20.12;52.97;100418.09;5047430;28;20068;-52
2021/05/13 09:02:37;;;;;;;7.80;5.93;;;;;;;20.17;52.58;100417.63;5051323;28;20164;-50
2021/05/13 09:05:05;;;;;;;10.00;5.93;;;;;;;20.28;51.87;100418.34;5047707;28;20045;-52
2021/05/13 09:07:32;;;;;;;8.77;5.45;;;;;;;20.41;51.19;100416.56;5058434;28;20049;-51
2021/05/13 09:10:08;;;;;;;7.28;6.03;;;;;;;20.45;50.60;100420.13;5050553;28;20061;-48
2021/05/13 09:12:46;;;;;;;7.63;4.45;;;;;;;20.61;49.68;100417.53;5047926;28;20585;-50
2021/05/13 09:15:19;;;;;;;5.82;5.13;;;;;;;20.58;49.56;100409.91;5050344;28;20049;-47
2021/05/13 09:18:00;;;;;;;7.68;5.60;;;;;;;20.52;49.00;100406.78;5031682;28;20599;-51
2021/05/13 09:20:31;;;;;;;5.55;4.95;;;;;;;20.70;48.82;100412.19;5031559;28;20045;-48
2021/05/13 09:23:15;;;;;;;6.07;4.82;;;;;;;20.76;47.04;100404.84;5042079;28;20052;-49
2021/05/13 09:25:44;;;;;;;5.78;4.97;;;;;;;20.74;47.90;100410.13;5049815;28;20076;-48
2021/05/13 09:28:11;;;;;;;6.38;4.47;;;;;;;20.80;47.95;100404.81;5051251;28;20055;-48
2021/05/13 09:30:38;;;;;;;7.25;4.60;;;;;;;20.89;47.43;100403.06;5049785;28;20057;-48
2021/05/13 09:33:10;;;;;;;7.82;5.10;;;;;;;20.93;47.18;100401.00;5050084;28;20057;-50
2021/05/13 09:35:37;;;;;;;6.95;3.95;;;;;;;21.16;46.83;100395.47;5048747;28;20475;-46
2021/05/13 09:38:09;;;;;;;7.15;5.28;;;;;;;21.11;46.69;100398.75;5049919;28;20179;-49
2021/05/13 09:40:39;;;;;;;6.35;3.33;;;;;;;21.12;46.05;100400.38;5050507;28;20053;-49
2021/05/13 09:43:16;;;;;;;5.95;4.30;;;;;;;21.29;45.58;100400.53;5050573;28;20080;-47
2021/05/13 09:45:49;;;;;;;9.20;5.07;;;;;;;21.31;45.86;100398.88;5049934;28;20550;-49
2021/05/13 09:48:45;;;;;;;4.68;3.75;;;;;;;21.53;44.45;100397.28;5048345;28;20049;-46
2021/05/13 09:51:19;;;;;;;6.07;4.25;;;;;;;21.56;44.98;100390.00;5050138;28;20056;-49
2021/05/13 09:54:05;;;;;;;4.85;3.88;;;;;;;21.52;44.82;100386.47;5031020;28;20103;-48
2021/05/13 09:56:33;;;;;;;3.92;3.58;;;;;;;21.60;44.69;100383.09;5049964;28;20157;-52
2021/05/13 09:59:24;;;;;;;5.47;3.72;;;;;;;21.64;43.52;100380.19;5050279;28;20071;-51
2021/05/13 10:01:59;;;;;;;6.60;4.07;;;;;;;21.71;43.48;100385.72;5041146;28;20084;-47
2021/05/13 10:04:27;;;;;;;6.07;3.08;;;;;;;21.67;42.84;100376.53;5045788;28;20148;-48
2021/05/13 10:06:54;;;;;;;7.03;3.30;;;;;;;21.66;42.55;100375.72;5048974;28;20049;-48
2021/05/13 10:09:22;;;;;;;5.88;3.15;;;;;;;21.62;42.73;100379.84;5050883;28;20080;-51
2021/05/13 10:11:56;;;;;;;4.85;2.95;;;;;;;21.17;42.69;100383.00;5050475;28;20065;-48
2021/05/13 10:14:25;;;;;;;3.65;2.15;;;;;;;20.65;43.24;100381.72;5054712;28;20098;-48
2021/05/13 10:17:05;;;;;;;6.50;2.63;;;;;;;20.51;43.33;100379.09;5045250;28;20467;-47
2021/05/13 10:19:44;;;;;;;5.45;3.00;;;;;;;20.06;43.52;100378.38;5049995;28;20041;-55
2021/05/13 10:22:14;;;;;;;5.82;3.78;;;;;;;19.49;44.11;100380.94;5048522;28;20053;-47
2021/05/13 10:24:46;;;;;;;3.70;2.85;;;;;;;19.06;45.00;100382.47;5047181;28;20072;-47
2021/05/13 10:27:17;;;;;;;4.70;2.65;;;;;;;18.63;45.72;100382.72;5049637;28;20401;-50
2021/05/13 10:29:45;;;;;;;6.03;3.35;;;;;;;18.76;46.13;100381.06;5048490;28;20076;-51
2021/05/13 10:32:22;;;;;;;9.38;3.13;;;;;;;18.70;46.20;100379.88;5050872;28;20079;-47
2021/05/13 10:34:59;;;;;;;4.25;2.83;;;;;;;18.24;46.99;100382.06;5049169;28;20041;-48
2021/05/13 10:37:37;;;;;;;5.50;3.75;;;;;;;17.67;48.52;100386.19;5049119;28;20522;-46
2021/05/13 10:42:42;;;;;;;3.38;2.55;;;;;;;17.19;48.73;100380.97;5050869;28;20049;-50
2021/05/13 10:45:30;;;;;;;4.53;2.17;;;;;;;17.06;49.43;100385.38;5049784;28;20053;-46
2021/05/13 10:48:14;;;;;;;3.50;1.95;;;;;;;16.97;49.46;100393.34;5049901;28;20076;-50
2021/05/13 10:50:43;;;;;;;3.03;1.75;;;;;;;17.12;49.51;100383.78;5038752;28;20041;-48
2021/05/13 10:53:47;;;;;;;4.90;2.33;;;;;;;17.11;48.90;100382.16;5047552;28;20127;-47
2021/05/13 10:56:22;;;;;;;4.85;2.25;;;;;;;16.78;49.08;100393.69;5035680;28;20473;-46
2021/05/13 10:59:08;;;;;;;5.57;1.70;;;;;;;16.55;49.74;100393.25;5047804;28;20060;-51
2021/05/13 11:01:43;;;;;;;2.63;1.67;;;;;;;16.37;50.34;100391.13;5050304;28;20644;-49
2021/05/13 11:04:22;;;;;;;5.00;1.95;;;;;;;16.17;50.46;100389.84;5049230;28;20119;-47
2021/05/13 11:07:01;;;;;;;2.85;1.70;;;;;;;16.09;50.58;100388.22;5048799;28;20099;-46
2021/05/13 11:09:38;;;;;;;2.20;1.70;;;;;;;16.11;51.05;100396.19;5049288;28;20139;-46
2021/05/13 11:12:08;;;;;;;5.13;2.25;;;;;;;16.08;51.04;100385.78;5049828;28;20091;-50
2021/05/13 11:20:23;;;;;;;4.13;1.80;;;;;;;16.16;50.88;100398.59;5028556;28;20125;-46
2021/05/13 11:22:55;;;;;;;2.87;1.60;;;;;;;16.13;50.86;100397.41;5034414;28;20068;-51
2021/05/13 11:25:24;;;;;;;3.60;2.85;;;;;;;16.05;51.13;100395.75;5029379;28;20049;-46
2021/05/13 11:27:51;;;;;;;2.95;2.00;;;;;;;16.04;50.94;100396.97;5028358;28;20073;-48
2021/05/13 11:30:24;;;;;;;4.43;2.72;;;;;;;16.23;51.26;100399.44;5027231;28;20048;-54
2021/05/13 11:32:51;;;;;;;2.40;2.20;;;;;;;16.48;51.39;100393.16;5027185;28;20045;-46
2021/05/13 11:35:22;;;;;;;4.53;2.22;;;;;;;16.70;51.61;100400.47;5028917;28;20042;-48
2021/05/13 11:37:54;;;;;;;4.30;2.30;;;;;;;16.78;51.42;100402.91;5028350;28;20050;-46
2021/05/13 11:40:26;;;;;;;;;;;;;;;16.79;51.85;100403.69;5029271;28;20545;-50
2021/05/13 11:43:37;;;;;;;6.72;2.42;;;;;;;16.79;51.61;100409.25;5028583;28;20390;-50
2021/05/13 11:46:09;;;;;;;6.47;2.20;;;;;;;16.76;51.25;100402.47;4976283;28;20068;-49
2021/05/13 11:48:41;;;;;;;4.38;2.22;;;;;;;16.63;51.36;100403.22;4987006;28;20793;-49
2021/05/13 11:51:11;;;;;;;8.43;1.85;;;;;;;16.46;51.36;100404.75;5010178;28;20127;-52
2021/05/13 11:53:45;;;;;;;3.35;2.00;;;;;;;16.22;51.35;100406.25;5028543;28;20507;-49